Time;durP1;ratioP1;P1;durP2;ratioP2;P2;SDS_P1;SDS_P2;PMS_P1;PMS_P2;Temp;Humidity;BMP_temperature;BMP_pressure;BME280_temperature;BME280_humidity;BME280_pressure;Samples;Min_cycle;Max_cycle;Signal;HPM_P1;HPM_P2
2020/12/10 00:01:07;;;;;;;43.93;21.70;;;;;;;;;;5011189;28;20183;-54
2020/12/10 00:03:32;;;;;;;40.38;20.08;;;;;;;;;;5011049;28;20458;-53
2020/12/10 00:05:58;;;;;;;43.77;20.33;;;;;;;;;;5011055;28;20192;-51
2020/12/10 00:08:25;;;;;;;49.33;20.70;;;;;;;;;;5011170;28;20399;-53
2020/12/10 00:10:51;;;;;;;40.88;20.60;;;;;;;;;;5009556;28;20934;-51
2020/12/10 00:13:17;;;;;;;38.77;20.33;;;;;;;;;;5010144;28;20169;-51
2020/12/10 00:15:43;;;;;;;40.20;20.47;;;;;;;;;;5010016;28;20541;-51
2020/12/10 00:18:09;;;;;;;39.13;21.45;;;;;;;;;;5011055;28;20973;-51
2020/12/10 00:20:35;;;;;;;38.55;20.38;;;;;;;;;;5010867;28;20175;-51
2020/12/10 00:23:01;;;;;;;41.40;19.80;;;;;;;;;;5010665;28;20172;-52
2020/12/10 00:25:27;;;;;;;33.67;16.63;;;;;;;;;;5010927;28;20946;-52
2020/12/10 00:27:53;;;;;;;36.90;18.98;;;;;;;;;;5010746;28;20395;-51
2020/12/10 00:30:19;;;;;;;38.63;18.45;;;;;;;;;;5010954;28;20172;-51
2020/12/10 00:32:45;;;;;;;44.72;20.55;;;;;;;;;;5010571;28;20172;-51
2020/12/10 00:35:11;;;;;;;35.90;17.67;;;;;;;;;;5010703;28;20211;-51
2020/12/10 00:37:38;;;;;;;31.83;18.50;;;;;;;;;;5010994;28;20493;-51
2020/12/10 00:40:05;;;;;;;39.95;18.20;;;;;;;;;;5011415;28;20432;-50
2020/12/10 00:42:31;;;;;;;37.17;18.38;;;;;;;;;;5014493;28;20167;-51
2020/12/10 00:44:57;;;;;;;41.80;18.92;;;;;;;;;;5014562;28;20680;-52
2020/12/10 00:47:23;;;;;;;35.27;18.67;;;;;;;;;;5014610;28;20169;-51
2020/12/10 00:49:49;;;;;;;38.20;19.08;;;;;;;;;;5013663;28;20434;-51
2020/12/10 00:52:15;;;;;;;34.87;18.00;;;;;;;;;;5014414;28;20176;-51
2020/12/10 00:54:41;;;;;;;31.60;17.35;;;;;;;;;;5014288;28;20426;-51
2020/12/10 00:57:08;;;;;;;35.67;18.45;;;;;;;;;;5014587;28;20169;-50
2020/12/10 00:59:34;;;;;;;36.25;17.73;;;;;;;;;;5014407;28;20179;-51
2020/12/10 01:02:00;;;;;;;35.30;17.67;;;;;;;;;;5014149;28;20218;-51
2020/12/10 01:04:26;;;;;;;37.50;18.53;;;;;;;;;;5014083;28;20458;-51
2020/12/10 01:06:52;;;;;;;37.40;17.60;;;;;;;;;;5014411;28;20494;-51
2020/12/10 01:09:18;;;;;;;36.03;17.13;;;;;;;;;;5014362;28;20402;-51
2020/12/10 01:11:44;;;;;;;37.60;17.17;;;;;;;;;;5013205;28;20874;-53
2020/12/10 01:14:10;;;;;;;40.03;18.03;;;;;;;;;;5014009;28;20426;-52
2020/12/10 01:16:38;;;;;;;35.73;17.30;;;;;;;;;;5013991;28;20431;-52
2020/12/10 01:19:03;;;;;;;36.22;18.05;;;;;;;;;;5014405;28;20839;-52
2020/12/10 01:21:31;;;;;;;33.53;17.20;;;;;;;;;;5013990;28;20252;-51
2020/12/10 01:23:57;;;;;;;36.85;19.27;;;;;;;;;;5013762;28;20457;-51
2020/12/10 01:26:24;;;;;;;35.08;17.55;;;;;;;;;;5013960;28;20172;-50
2020/12/10 01:28:50;;;;;;;32.75;18.25;;;;;;;;;;5014153;28;20210;-50
2020/12/10 01:31:16;;;;;;;29.88;16.00;;;;;;;;;;5013774;28;20188;-50
2020/12/10 01:33:42;;;;;;;32.33;18.35;;;;;;;;;;5013858;28;20217;-51
2020/12/10 01:36:08;;;;;;;32.83;16.77;;;;;;;;;;5014018;28;20655;-51
2020/12/10 01:38:34;;;;;;;33.35;18.10;;;;;;;;;;5013769;28;20399;-51
2020/12/10 01:41:00;;;;;;;36.80;18.63;;;;;;;;;;5012956;28;20546;-51
2020/12/10 01:43:26;;;;;;;32.27;16.70;;;;;;;;;;5013508;28;20851;-50
2020/12/10 01:45:52;;;;;;;34.30;18.80;;;;;;;;;;5013675;28;20427;-51
2020/12/10 01:48:18;;;;;;;32.23;17.23;;;;;;;;;;5013657;28;20414;-50
2020/12/10 01:50:44;;;;;;;34.40;18.30;;;;;;;;;;5013473;28;20396;-50
2020/12/10 01:53:10;;;;;;;34.73;18.33;;;;;;;;;;5013535;28;20172;-51
2020/12/10 01:55:36;;;;;;;34.63;19.33;;;;;;;;;;5013805;28;20423;-50
2020/12/10 01:58:02;;;;;;;44.73;18.53;;;;;;;;;;5013600;28;20829;-51
2020/12/10 02:00:28;;;;;;;39.13;17.33;;;;;;;;;;5013504;28;20426;-50
2020/12/10 02:02:57;;;;;;;42.87;20.87;;;;;;;;;;5012465;28;20392;-51
2020/12/10 02:05:24;;;;;;;36.00;19.42;;;;;;;;;;5012615;28;20502;-52
2020/12/10 02:07:50;;;;;;;39.60;20.00;;;;;;;;;;5013150;28;20164;-53
2020/12/10 02:10:16;;;;;;;35.13;17.60;;;;;;;;;;5012975;28;20255;-51
2020/12/10 02:12:42;;;;;;;37.30;19.80;;;;;;;;;;5012330;28;20280;-50
2020/12/10 02:15:08;;;;;;;40.13;19.00;;;;;;;;;;5012801;28;20196;-50
2020/12/10 02:17:34;;;;;;;39.70;18.77;;;;;;;;;;5013146;28;20180;-50
2020/12/10 02:20:00;;;;;;;36.50;18.00;;;;;;;;;;5012944;28;20255;-50
2020/12/10 02:22:26;;;;;;;34.47;18.33;;;;;;;;;;5012808;28;20339;-51
2020/12/10 02:24:52;;;;;;;39.83;19.70;;;;;;;;;;5012685;28;20458;-51
2020/12/10 02:27:18;;;;;;;35.10;19.45;;;;;;;;;;5012981;28;20415;-51
2020/12/10 02:29:44;;;;;;;43.95;21.27;;;;;;;;;;5012871;28;20175;-51
2020/12/10 02:32:10;;;;;;;38.53;18.07;;;;;;;;;;5012472;28;20168;-51
2020/12/10 02:34:36;;;;;;;42.05;18.25;;;;;;;;;;5012638;28;20505;-51
2020/12/10 02:37:02;;;;;;;36.80;17.93;;;;;;;;;;5012636;28;20254;-51
2020/12/10 02:39:28;;;;;;;38.93;20.47;;;;;;;;;;5012679;28;20407;-50
2020/12/10 02:41:54;;;;;;;38.63;21.40;;;;;;;;;;5011490;28;20942;-51
2020/12/10 02:44:20;;;;;;;40.60;20.47;;;;;;;;;;5012335;28;20458;-52
2020/12/10 02:46:46;;;;;;;37.63;18.47;;;;;;;;;;5012407;28;20409;-53
2020/12/10 02:49:12;;;;;;;42.47;19.85;;;;;;;;;;5012489;28;20403;-53
2020/12/10 02:51:42;;;;;;;42.30;20.20;;;;;;;;;;5012272;28;20165;-52
2020/12/10 02:54:08;;;;;;;39.88;20.00;;;;;;;;;;5012257;28;20844;-51
2020/12/10 02:56:34;;;;;;;46.30;21.77;;;;;;;;;;5012180;28;20164;-52
2020/12/10 02:59:00;;;;;;;44.67;21.75;;;;;;;;;;5012307;28;20419;-52
2020/12/10 03:01:26;;;;;;;37.58;19.00;;;;;;;;;;5012446;28;20183;-52
2020/12/10 03:03:52;;;;;;;45.70;20.97;;;;;;;;;;5011175;28;20586;-50
2020/12/10 03:06:18;;;;;;;40.70;20.85;;;;;;;;;;5012240;28;20982;-50
2020/12/10 03:08:44;;;;;;;44.10;20.27;;;;;;;;;;5012112;28;20169;-51
2020/12/10 03:11:10;;;;;;;40.10;20.30;;;;;;;;;;5012094;28;20402;-50
2020/12/10 03:13:36;;;;;;;48.83;23.20;;;;;;;;;;5010703;28;20434;-50
2020/12/10 03:16:02;;;;;;;44.92;21.00;;;;;;;;;;5012093;28;20411;-50
2020/12/10 03:18:28;;;;;;;46.08;22.20;;;;;;;;;;5011948;28;20172;-50
2020/12/10 03:20:54;;;;;;;44.90;21.58;;;;;;;;;;5012019;28;20307;-50
2020/12/10 03:23:20;;;;;;;38.45;19.65;;;;;;;;;;5011576;28;20215;-50
2020/12/10 03:25:46;;;;;;;47.20;23.02;;;;;;;;;;5011869;28;20269;-50
2020/12/10 03:28:12;;;;;;;46.20;21.40;;;;;;;;;;5011791;28;20627;-50
2020/12/10 03:30:38;;;;;;;46.30;21.95;;;;;;;;;;5011808;28;20899;-51
2020/12/10 03:33:04;;;;;;;45.57;23.57;;;;;;;;;;5011732;28;20164;-50
2020/12/10 03:35:30;;;;;;;50.08;23.15;;;;;;;;;;5011514;28;20927;-50
2020/12/10 03:37:59;;;;;;;41.50;20.60;;;;;;;;;;5011821;28;20170;-50
2020/12/10 03:40:25;;;;;;;46.13;22.90;;;;;;;;;;5011524;28;20403;-53
2020/12/10 03:42:51;;;;;;;46.13;22.83;;;;;;;;;;5010808;28;20190;-53
2020/12/10 03:45:17;;;;;;;48.27;22.57;;;;;;;;;;5011535;28;20465;-50
2020/12/10 03:47:43;;;;;;;57.27;21.87;;;;;;;;;;5011905;28;20403;-50
2020/12/10 03:50:09;;;;;;;50.23;24.50;;;;;;;;;;5011706;28;20769;-50
2020/12/10 03:52:35;;;;;;;49.27;23.87;;;;;;;;;;5011485;28;20411;-50
2020/12/10 03:55:01;;;;;;;57.07;23.07;;;;;;;;;;5011205;28;20443;-50
2020/12/10 03:57:27;;;;;;;52.33;22.53;;;;;;;;;;5011383;28;20407;-51
2020/12/10 03:59:53;;;;;;;53.13;23.10;;;;;;;;;;5011380;28;20780;-50
2020/12/10 04:02:19;;;;;;;51.53;22.63;;;;;;;;;;5010997;28;20430;-51
2020/12/10 04:04:45;;;;;;;48.23;23.17;;;;;;;;;;5011112;28;20553;-51
2020/12/10 04:07:11;;;;;;;51.20;23.00;;;;;;;;;;5011030;28;20400;-50
2020/12/10 04:09:37;;;;;;;46.10;21.10;;;;;;;;;;5011094;28;20395;-52
2020/12/10 04:12:03;;;;;;;49.83;23.05;;;;;;;;;;5010215;28;20786;-52
2020/12/10 04:14:29;;;;;;;53.47;22.67;;;;;;;;;;5011019;28;20180;-51
2020/12/10 04:16:56;;;;;;;45.17;20.77;;;;;;;;;;5011053;28;20219;-51
2020/12/10 04:19:22;;;;;;;50.22;22.58;;;;;;;;;;5011237;28;20511;-52
2020/12/10 04:21:48;;;;;;;43.63;21.60;;;;;;;;;;5010874;28;20613;-52
2020/12/10 04:24:14;;;;;;;56.20;22.60;;;;;;;;;;5010651;28;20463;-50
2020/12/10 04:26:40;;;;;;;47.90;22.27;;;;;;;;;;5010906;28;20410;-51
2020/12/10 04:29:06;;;;;;;47.78;21.13;;;;;;;;;;5011027;28;20821;-51
2020/12/10 04:31:36;;;;;;;48.73;20.33;;;;;;;;;;5010908;28;20191;-51
2020/12/10 04:34:02;;;;;;;46.05;20.88;;;;;;;;;;5010395;28;20465;-52
2020/12/10 04:36:27;;;;;;;53.77;22.60;;;;;;;;;;5010880;28;20554;-50
2020/12/10 04:38:53;;;;;;;47.17;21.87;;;;;;;;;;5010732;28;20411;-51
2020/12/10 04:41:19;;;;;;;52.47;23.10;;;;;;;;;;5010032;28;20434;-51
2020/12/10 04:43:45;;;;;;;47.88;21.45;;;;;;;;;;5010558;28;20453;-51
2020/12/10 04:46:11;;;;;;;44.70;21.10;;;;;;;;;;5010892;28;20176;-51
2020/12/10 04:48:37;;;;;;;49.50;22.90;;;;;;;;;;5010686;28;20453;-51
2020/12/10 04:51:06;;;;;;;52.00;22.27;;;;;;;;;;5010733;28;20395;-50
2020/12/10 04:53:32;;;;;;;52.78;23.83;;;;;;;;;;5010436;28;20834;-51
2020/12/10 04:55:59;;;;;;;48.33;22.45;;;;;;;;;;5010896;28;20223;-51
2020/12/10 04:58:25;;;;;;;53.05;24.15;;;;;;;;;;5010561;28;20188;-51
2020/12/10 05:00:59;;;;;;;50.20;24.58;;;;;;;;;;5010644;28;20631;-51
2020/12/10 05:03:25;;;;;;;51.13;21.35;;;;;;;;;;5010434;28;20665;-52
2020/12/10 05:05:52;;;;;;;49.13;20.85;;;;;;;;;;5010315;28;20184;-53
2020/12/10 05:08:30;;;;;;;55.85;22.65;;;;;;;;;;5010662;28;20179;-51
2020/12/10 05:10:57;;;;;;;46.45;21.35;;;;;;;;;;5010582;28;20172;-51
2020/12/10 05:13:23;;;;;;;56.42;22.10;;;;;;;;;;5009594;28;20258;-50
2020/12/10 05:15:49;;;;;;;53.35;22.75;;;;;;;;;;5009793;28;20831;-50
2020/12/10 05:18:16;;;;;;;48.88;22.55;;;;;;;;;;5011087;28;20226;-53
2020/12/10 05:20:42;;;;;;;51.75;22.75;;;;;;;;;;5010297;28;20168;-53
2020/12/10 05:23:08;;;;;;;56.37;22.00;;;;;;;;;;5010316;28;20218;-52
2020/12/10 05:25:47;;;;;;;54.50;23.45;;;;;;;;;;5011098;28;20761;-52
2020/12/10 05:28:13;;;;;;;48.63;20.88;;;;;;;;;;5014196;28;20168;-52
2020/12/10 05:30:41;;;;;;;55.65;23.33;;;;;;;;;;5013981;28;20175;-52
2020/12/10 05:33:11;;;;;;;55.00;21.45;;;;;;;;;;5014122;28;20168;-53
2020/12/10 05:35:37;;;;;;;53.85;22.20;;;;;;;;;;5014286;28;20196;-52
2020/12/10 05:38:07;;;;;;;45.70;22.55;;;;;;;;;;5014221;28;20659;-52
2020/12/10 05:40:33;;;;;;;52.97;23.52;;;;;;;;;;5014089;28;20302;-52
2020/12/10 05:42:59;;;;;;;55.80;24.20;;;;;;;;;;5012577;28;20259;-53
2020/12/10 05:45:25;;;;;;;53.10;24.00;;;;;;;;;;5013832;28;20454;-53
2020/12/10 05:47:52;;;;;;;58.00;23.40;;;;;;;;;;5013937;28;20408;-53
2020/12/10 05:50:25;;;;;;;52.05;22.25;;;;;;;;;;5013050;28;20835;-52
2020/12/10 05:53:07;;;;;;;53.90;22.13;;;;;;;;;;5013406;28;20294;-53
2020/12/10 05:55:34;;;;;;;53.92;23.50;;;;;;;;;;5013590;28;20559;-53
2020/12/10 05:58:01;;;;;;;61.58;24.15;;;;;;;;;;5013375;28;20169;-53
2020/12/10 06:00:27;;;;;;;51.35;21.45;;;;;;;;;;5013567;28;20195;-52
2020/12/10 06:02:55;;;;;;;46.22;22.95;;;;;;;;;;5013454;28;20585;-52
2020/12/10 06:05:22;;;;;;;48.20;20.23;;;;;;;;;;5013232;28;20211;-53
2020/12/10 06:08:07;;;;;;;50.63;22.77;;;;;;;;;;5013131;28;20628;-53
2020/12/10 06:10:36;;;;;;;48.88;22.15;;;;;;;;;;5013200;28;20171;-52
2020/12/10 06:13:03;;;;;;;54.60;24.08;;;;;;;;;;5012158;28;20214;-52
2020/12/10 06:15:32;;;;;;;44.13;19.90;;;;;;;;;;5012592;28;20232;-53
2020/12/10 06:18:05;;;;;;;53.75;23.98;;;;;;;;;;5013043;28;20254;-53
2020/12/10 06:20:31;;;;;;;48.55;22.60;;;;;;;;;;5013037;28;20164;-53
2020/12/10 06:23:17;;;;;;;54.30;23.08;;;;;;;;;;5012737;28;20180;-53
2020/12/10 06:25:43;;;;;;;44.15;20.60;;;;;;;;;;5012880;28;20203;-52
2020/12/10 06:28:20;;;;;;;48.50;22.90;;;;;;;;;;5012953;28;20179;-52
2020/12/10 06:31:15;;;;;;;51.65;22.35;;;;;;;;;;5012859;28;20403;-52
2020/12/10 06:33:42;;;;;;;54.15;23.13;;;;;;;;;;4995405;28;20207;-51
2020/12/10 06:36:37;;;;;;;45.40;22.20;;;;;;;;;;5012787;28;20701;-52
2020/12/10 06:39:03;;;;;;;55.80;21.95;;;;;;;;;;4995129;28;20192;-52
2020/12/10 06:41:29;;;;;;;52.67;22.98;;;;;;;;;;5011892;28;20178;-52
2020/12/10 06:43:55;;;;;;;48.63;20.20;;;;;;;;;;5011711;28;20192;-53
2020/12/10 06:46:21;;;;;;;50.53;21.70;;;;;;;;;;5012320;28;20442;-52
2020/12/10 06:48:48;;;;;;;56.75;23.95;;;;;;;;;;5011862;28;20915;-53
2020/12/10 06:51:15;;;;;;;58.83;25.40;;;;;;;;;;5012254;28;20165;-52
2020/12/10 06:53:41;;;;;;;66.15;25.90;;;;;;;;;;5011952;28;20176;-52
2020/12/10 06:56:10;;;;;;;64.90;26.67;;;;;;;;;;5011912;28;20180;-53
2020/12/10 06:58:40;;;;;;;48.30;21.55;;;;;;;;;;5001633;28;20812;-53
2020/12/10 07:01:18;;;;;;;50.35;24.13;;;;;;;;;;5010761;28;20711;-53
2020/12/10 07:03:45;;;;;;;49.72;23.38;;;;;;;;;;4993376;28;20192;-52
2020/12/10 07:06:19;;;;;;;51.75;22.60;;;;;;;;;;5011831;28;20255;-53
2020/12/10 07:09:04;;;;;;;50.85;22.20;;;;;;;;;;5012050;28;20504;-52
2020/12/10 07:11:38;;;;;;;43.60;18.88;;;;;;;;;;4996801;28;20165;-53
2020/12/10 07:14:23;;;;;;;50.28;21.67;;;;;;;;;;5011564;28;20210;-53
2020/12/10 07:16:49;;;;;;;55.63;24.23;;;;;;;;;;5015907;28;20179;-53
2020/12/10 07:19:15;;;;;;;43.55;20.30;;;;;;;;;;5012646;28;20182;-51
2020/12/10 07:21:41;;;;;;;46.90;20.10;;;;;;;;;;5012820;28;20183;-51
2020/12/10 07:24:07;;;;;;;44.97;19.90;;;;;;;;;;5011828;28;20546;-51
2020/12/10 07:26:33;;;;;;;47.50;20.00;;;;;;;;;;5013511;28;20420;-53
2020/12/10 07:28:59;;;;;;;45.58;20.70;;;;;;;;;;5013739;28;21010;-52
2020/12/10 07:31:25;;;;;;;52.33;20.30;;;;;;;;;;5007335;28;20259;-53
2020/12/10 07:33:55;;;;;;;53.50;21.40;;;;;;;;;;5024815;28;20422;-52
2020/12/10 07:36:21;;;;;;;49.28;22.02;;;;;;;;;;5028448;28;20426;-53
2020/12/10 07:38:47;;;;;;;45.35;21.63;;;;;;;;;;5013018;28;20183;-52
2020/12/10 07:41:13;;;;;;;47.97;21.37;;;;;;;;;;5011167;28;20169;-53
2020/12/10 07:43:45;;;;;;;37.60;20.07;;;;;;;;;;5010650;28;21007;-53
2020/12/10 07:46:12;;;;;;;55.03;23.58;;;;;;;;;;5011694;28;20407;-53
2020/12/10 07:48:38;;;;;;;55.00;24.25;;;;;;;;;;5010825;28;20172;-52
2020/12/10 07:51:04;;;;;;;61.67;27.10;;;;;;;;;;5011108;28;20176;-53
2020/12/10 07:53:30;;;;;;;48.13;22.90;;;;;;;;;;5010933;28;20179;-52
2020/12/10 07:56:03;;;;;;;58.30;24.23;;;;;;;;;;5011313;28;20423;-52
2020/12/10 07:58:44;;;;;;;60.63;24.92;;;;;;;;;;5010330;28;20184;-53
2020/12/10 08:01:10;;;;;;;45.65;22.17;;;;;;;;;;5010887;28;20172;-52
2020/12/10 08:04:00;;;;;;;45.28;19.90;;;;;;;;;;5010872;28;20258;-53
2020/12/10 08:06:31;;;;;;;49.92;21.80;;;;;;;;;;4991580;28;20231;-52
2020/12/10 08:08:59;;;;;;;43.92;21.38;;;;;;;;;;4992248;28;20167;-52
2020/12/10 08:11:26;;;;;;;45.10;20.90;;;;;;;;;;5011014;28;20180;-52
2020/12/10 08:13:59;;;;;;;43.08;20.63;;;;;;;;;;5011185;28;20180;-52
2020/12/10 08:16:36;;;;;;;49.78;23.55;;;;;;;;;;4991320;28;20180;-53
2020/12/10 08:19:22;;;;;;;41.53;22.30;;;;;;;;;;4992602;28;20172;-52
2020/12/10 08:21:49;;;;;;;45.58;23.27;;;;;;;;;;5010631;28;20180;-52
2020/12/10 08:24:33;;;;;;;48.45;21.98;;;;;;;;;;5010714;28;20282;-52
2020/12/10 08:26:59;;;;;;;56.25;22.00;;;;;;;;;;5010706;28;20176;-53
2020/12/10 08:29:25;;;;;;;44.45;21.30;;;;;;;;;;5009638;28;20243;-53
2020/12/10 08:31:51;;;;;;;54.83;22.52;;;;;;;;;;5010669;28;20207;-53
2020/12/10 08:34:17;;;;;;;45.97;20.23;;;;;;;;;;5010346;28;20227;-52
2020/12/10 08:36:44;;;;;;;43.28;21.30;;;;;;;;;;5010815;28;20811;-53
2020/12/10 08:39:10;;;;;;;39.58;20.85;;;;;;;;;;5010596;28;20203;-52
2020/12/10 08:41:36;;;;;;;45.17;21.50;;;;;;;;;;5010824;28;20650;-53
2020/12/10 08:44:09;;;;;;;36.25;18.10;;;;;;;;;;5010079;28;20482;-52
2020/12/10 08:46:36;;;;;;;44.22;19.60;;;;;;;;;;4990973;28;20196;-53
2020/12/10 08:49:34;;;;;;;31.42;17.08;;;;;;;;;;4991616;28;20169;-52
2020/12/10 08:52:00;;;;;;;39.83;19.00;;;;;;;;;;4977389;28;20192;-53
2020/12/10 08:54:26;;;;;;;33.50;17.33;;;;;;;;;;5010189;28;20195;-52
2020/12/10 08:56:59;;;;;;;34.63;16.27;;;;;;;;;;5010576;28;20181;-53
2020/12/10 08:59:25;;;;;;;33.22;18.20;;;;;;;;;;5010535;28;20908;-53
2020/12/10 09:01:52;;;;;;;38.57;18.97;;;;;;;;;;5013226;28;20179;-51
2020/12/10 09:04:18;;;;;;;33.17;17.27;;;;;;;;;;5013062;28;20471;-52
2020/12/10 09:06:44;;;;;;;35.58;18.02;;;;;;;;;;5014478;28;20182;-53
2020/12/10 09:09:10;;;;;;;38.53;17.20;;;;;;;;;;5014152;28;20629;-53
2020/12/10 09:11:36;;;;;;;38.93;19.07;;;;;;;;;;5013848;28;20407;-53
2020/12/10 09:14:02;;;;;;;32.83;18.67;;;;;;;;;;5014048;28;20443;-52
2020/12/10 09:16:29;;;;;;;36.40;18.27;;;;;;;;;;5014052;28;20423;-52
2020/12/10 09:18:55;;;;;;;32.03;17.52;;;;;;;;;;5014335;28;20410;-52
2020/12/10 09:21:21;;;;;;;34.60;17.50;;;;;;;;;;5013738;28;20165;-52
2020/12/10 09:23:47;;;;;;;36.85;18.85;;;;;;;;;;5013774;28;20199;-53
2020/12/10 09:26:14;;;;;;;27.23;15.82;;;;;;;;;;5013712;28;20259;-52
2020/12/10 09:28:40;;;;;;;27.83;15.80;;;;;;;;;;5013284;28;20316;-54
2020/12/10 09:31:06;;;;;;;32.83;18.47;;;;;;;;;;5013780;28;20439;-52
2020/12/10 09:33:33;;;;;;;33.40;17.37;;;;;;;;;;5013642;28;20783;-53
2020/12/10 09:35:59;;;;;;;33.27;18.03;;;;;;;;;;5013645;28;20472;-53
2020/12/10 09:38:25;;;;;;;31.77;17.03;;;;;;;;;;5012783;28;20555;-53
2020/12/10 09:40:51;;;;;;;28.40;17.13;;;;;;;;;;5013706;28;20897;-53
2020/12/10 09:43:17;;;;;;;31.20;15.90;;;;;;;;;;5013395;28;20512;-54
2020/12/10 09:45:47;;;;;;;25.10;14.53;;;;;;;;;;5013613;28;20422;-52
2020/12/10 09:48:14;;;;;;;25.30;14.10;;;;;;;;;;5013671;28;20749;-53
2020/12/10 09:50:39;;;;;;;27.93;15.80;;;;;;;;;;5013646;28;20418;-53
2020/12/10 09:53:22;;;;;;;23.27;15.33;;;;;;;;;;5012985;28;20407;-53
2020/12/10 09:58:20;;;;;;;22.63;12.83;;;;;;;;;;5012441;28;20525;-53
2020/12/10 10:00:49;;;;;;;26.77;15.00;;;;;;;;;;5013345;28;20410;-53
2020/12/10 10:03:19;;;;;;;23.47;13.10;;;;;;;;;;5013008;28;20454;-53
2020/12/10 10:05:45;;;;;;;25.77;15.00;;;;;;;;;;5013109;28;20700;-53
2020/12/10 10:08:12;;;;;;;25.60;14.63;;;;;;;;;;5013056;28;20468;-54
2020/12/10 10:10:38;;;;;;;26.43;13.97;;;;;;;;;;5013407;28;20408;-53
2020/12/10 10:13:04;;;;;;;24.30;12.83;;;;;;;;;;5012694;28;22384;-53
2020/12/10 10:15:30;;;;;;;19.40;12.20;;;;;;;;;;5012913;28;20521;-53
2020/12/10 10:17:56;;;;;;;21.10;12.57;;;;;;;;;;5012890;28;20408;-54
2020/12/10 10:20:22;;;;;;;25.80;14.60;;;;;;;;;;5012878;28;20487;-52
2020/12/10 10:22:48;;;;;;;22.27;12.40;;;;;;;;;;5012727;28;20605;-53
2020/12/10 10:25:14;;;;;;;23.93;14.00;;;;;;;;;;5012743;28;20470;-53
2020/12/10 10:27:40;;;;;;;22.00;13.27;;;;;;;;;;5012091;28;20930;-53
2020/12/10 10:30:07;;;;;;;21.17;12.03;;;;;;;;;;5012641;28;20449;-53
2020/12/10 10:32:34;;;;;;;21.80;13.33;;;;;;;;;;5012016;28;20426;-54
2020/12/10 10:35:00;;;;;;;18.60;12.50;;;;;;;;;;5011981;28;20457;-54
2020/12/10 10:37:26;;;;;;;16.27;11.27;;;;;;;;;;5012468;28;20494;-54
2020/12/10 10:39:52;;;;;;;20.87;12.30;;;;;;;;;;5012052;28;20426;-54
2020/12/10 10:42:18;;;;;;;18.30;11.70;;;;;;;;;;5010760;28;20419;-53
2020/12/10 10:44:44;;;;;;;19.60;12.77;;;;;;;;;;5005940;28;20463;-54
2020/12/10 10:47:10;;;;;;;17.10;11.80;;;;;;;;;;4992894;28;20439;-54
2020/12/10 10:49:36;;;;;;;21.57;13.67;;;;;;;;;;5005797;28;20495;-54
2020/12/10 10:52:02;;;;;;;18.60;12.20;;;;;;;;;;5011601;28;20414;-54
2020/12/10 10:54:28;;;;;;;17.10;11.70;;;;;;;;;;5011611;28;20438;-54
2020/12/10 10:56:54;;;;;;;18.40;11.90;;;;;;;;;;5011388;28;20431;-54
2020/12/10 10:59:20;;;;;;;18.70;13.00;;;;;;;;;;5012226;28;20406;-53
2020/12/10 11:01:46;;;;;;;21.67;12.90;;;;;;;;;;5012111;28;20412;-54
2020/12/10 11:04:12;;;;;;;18.60;11.63;;;;;;;;;;5011574;28;20459;-53
2020/12/10 11:06:38;;;;;;;18.37;11.33;;;;;;;;;;5011895;28;20890;-54
2020/12/10 11:09:04;;;;;;;18.37;11.70;;;;;;;;;;5011892;28;20413;-54
2020/12/10 11:11:30;;;;;;;18.40;11.30;;;;;;;;;;5011886;28;20541;-54
2020/12/10 11:13:56;;;;;;;17.63;12.67;;;;;;;;;;5011763;28;20419;-54
2020/12/10 11:16:22;;;;;;;17.47;11.00;;;;;;;;;;5009974;28;20935;-54
2020/12/10 11:18:48;;;;;;;20.20;11.60;;;;;;;;;;5014725;28;20421;-52
2020/12/10 11:21:14;;;;;;;19.63;11.10;;;;;;;;;;5005416;28;20900;-52
2020/12/10 11:23:42;;;;;;;17.10;11.00;;;;;;;;;;4991350;28;20461;-52
2020/12/10 11:26:08;;;;;;;16.20;11.00;;;;;;;;;;5006730;28;20609;-55
2020/12/10 11:28:34;;;;;;;16.67;11.10;;;;;;;;;;5011101;28;20414;-52
2020/12/10 11:31:00;;;;;;;18.67;11.50;;;;;;;;;;5011073;28;20415;-52
2020/12/10 11:33:26;;;;;;;18.17;11.17;;;;;;;;;;5010851;28;20523;-52
2020/12/10 11:35:52;;;;;;;17.10;11.53;;;;;;;;;;5010753;28;20435;-52
2020/12/10 11:38:19;;;;;;;19.63;11.70;;;;;;;;;;5011649;28;20806;-54
2020/12/10 11:40:45;;;;;;;22.27;12.77;;;;;;;;;;5010750;28;20933;-52
2020/12/10 11:43:11;;;;;;;17.37;11.07;;;;;;;;;;5010934;28;20504;-53
2020/12/10 11:45:37;;;;;;;20.30;11.50;;;;;;;;;;5011115;28;20540;-53
2020/12/10 11:48:04;;;;;;;16.80;10.60;;;;;;;;;;5010800;28;20792;-52
2020/12/10 11:50:32;;;;;;;16.00;10.60;;;;;;;;;;5010394;28;20493;-51
2020/12/10 11:52:58;;;;;;;19.00;9.87;;;;;;;;;;5010925;28;20427;-52
2020/12/10 11:55:24;;;;;;;16.20;11.93;;;;;;;;;;5011161;28;20967;-52
2020/12/10 11:57:50;;;;;;;17.60;10.70;;;;;;;;;;5010154;28;20429;-51
2020/12/10 12:00:16;;;;;;;15.83;10.27;;;;;;;;;;5010674;28;20911;-52
2020/12/10 12:02:42;;;;;;;17.30;10.70;;;;;;;;;;5010367;28;20891;-52
2020/12/10 12:05:09;;;;;;;16.90;11.27;;;;;;;;;;5010828;28;20509;-51
2020/12/10 12:07:37;;;;;;;15.80;11.13;;;;;;;;;;5010771;28;20443;-52
2020/12/10 12:10:03;;;;;;;17.80;11.20;;;;;;;;;;5010904;28;20434;-53
2020/12/10 12:12:34;;;;;;;16.90;10.33;;;;;;;;;;5010600;28;20915;-52
2020/12/10 12:15:00;;;;;;;16.70;10.60;;;;;;;;;;5010509;28;21019;-52
2020/12/10 12:17:26;;;;;;;17.30;10.60;;;;;;;;;;5010620;28;20454;-52
2020/12/10 12:19:52;;;;;;;14.50;8.87;;;;;;;;;;5010990;28;20405;-54
2020/12/10 12:22:18;;;;;;;15.83;9.47;;;;;;;;;;5010498;28;20916;-51
2020/12/10 12:24:44;;;;;;;16.10;8.80;;;;;;;;;;5010507;28;21008;-51
2020/12/10 12:27:10;;;;;;;14.80;9.73;;;;;;;;;;5009911;28;20844;-52
2020/12/10 12:29:38;;;;;;;17.70;9.70;;;;;;;;;;5010176;28;20503;-52
2020/12/10 12:32:05;;;;;;;16.03;9.97;;;;;;;;;;5010401;28;20407;-52
2020/12/10 12:34:31;;;;;;;16.13;9.77;;;;;;;;;;5010598;28;20536;-52
2020/12/10 12:36:57;;;;;;;15.03;9.53;;;;;;;;;;5013777;28;20481;-53
2020/12/10 12:39:23;;;;;;;14.83;10.17;;;;;;;;;;5014767;28;20415;-53
2020/12/10 12:41:49;;;;;;;17.97;10.27;;;;;;;;;;5014519;28;20462;-51
2020/12/10 12:44:15;;;;;;;15.27;10.27;;;;;;;;;;5013789;28;20868;-51
2020/12/10 12:46:41;;;;;;;19.07;10.97;;;;;;;;;;5014880;28;20439;-52
2020/12/10 12:49:06;;;;;;;14.70;9.55;;;;;;;;;;5014562;28;20417;-51
2020/12/10 12:51:32;;;;;;;14.13;9.83;;;;;;;;;;5014531;28;20540;-52
2020/12/10 12:53:58;;;;;;;15.93;10.13;;;;;;;;;;5014030;28;20480;-52
2020/12/10 12:56:24;;;;;;;13.23;9.60;;;;;;;;;;5013236;28;20429;-51
2020/12/10 12:58:51;;;;;;;14.55;8.70;;;;;;;;;;5014343;28;20423;-52
2020/12/10 13:01:18;;;;;;;15.00;9.93;;;;;;;;;;5014239;28;20645;-52
2020/12/10 13:03:44;;;;;;;15.63;8.45;;;;;;;;;;5013999;28;20280;-52
2020/12/10 13:06:11;;;;;;;15.38;10.90;;;;;;;;;;5012441;28;20174;-52
2020/12/10 13:08:37;;;;;;;12.30;8.70;;;;;;;;;;5014230;28;20169;-51
2020/12/10 13:11:03;;;;;;;19.53;10.70;;;;;;;;;;5013822;28;20412;-51
2020/12/10 13:13:29;;;;;;;12.53;8.60;;;;;;;;;;5014020;28;20785;-51
2020/12/10 13:15:56;;;;;;;12.23;8.83;;;;;;;;;;5014044;28;20433;-51
2020/12/10 13:18:22;;;;;;;12.93;8.83;;;;;;;;;;5014213;28;20485;-51
2020/12/10 13:20:48;;;;;;;17.93;10.40;;;;;;;;;;5013690;28;20508;-51
2020/12/10 13:23:14;;;;;;;14.90;10.40;;;;;;;;;;5013858;28;20405;-51
2020/12/10 13:25:40;;;;;;;14.13;9.20;;;;;;;;;;5013160;28;20523;-53
2020/12/10 13:28:06;;;;;;;13.70;9.60;;;;;;;;;;5012621;28;20437;-51
2020/12/10 13:30:31;;;;;;;14.07;9.73;;;;;;;;;;5013799;28;20410;-51
2020/12/10 13:32:57;;;;;;;14.80;9.67;;;;;;;;;;5013170;28;20845;-52
2020/12/10 13:35:23;;;;;;;16.87;9.53;;;;;;;;;;5013804;28;20591;-51
2020/12/10 13:37:49;;;;;;;13.17;9.20;;;;;;;;;;5013698;28;20467;-52
2020/12/10 13:40:15;;;;;;;14.10;8.90;;;;;;;;;;5014248;28;20420;-53
2020/12/10 13:42:41;;;;;;;13.00;9.73;;;;;;;;;;5028114;28;20422;-53
2020/12/10 13:45:07;;;;;;;16.83;9.68;;;;;;;;;;5032157;28;20460;-52
2020/12/10 13:47:35;;;;;;;15.37;10.50;;;;;;;;;;5032780;28;20168;-53
2020/12/10 13:50:01;;;;;;;14.95;8.93;;;;;;;;;;5021034;28;20416;-51
2020/12/10 13:52:27;;;;;;;15.40;9.70;;;;;;;;;;5013590;28;20172;-51
2020/12/10 13:54:53;;;;;;;14.77;10.32;;;;;;;;;;5013141;28;20443;-52
2020/12/10 13:57:20;;;;;;;15.15;9.70;;;;;;;;;;5012670;28;20187;-51
2020/12/10 13:59:46;;;;;;;11.25;9.40;;;;;;;;;;5023013;28;20171;-51
2020/12/10 14:02:15;;;;;;;12.57;9.17;;;;;;;;;;5026603;28;20175;-51
2020/12/10 14:04:41;;;;;;;15.15;8.55;;;;;;;;;;5032839;28;20465;-51
2020/12/10 14:07:08;;;;;;;11.90;9.03;;;;;;;;;;5030730;28;20180;-51
2020/12/10 14:09:34;;;;;;;14.07;9.00;;;;;;;;;;5030843;28;20409;-51
2020/12/10 14:12:00;;;;;;;13.00;8.30;;;;;;;;;;5030229;28;20253;-51
2020/12/10 14:14:28;;;;;;;17.35;9.38;;;;;;;;;;5028688;28;20199;-52
2020/12/10 14:16:54;;;;;;;16.88;10.23;;;;;;;;;;5023365;28;20244;-52
2020/12/10 14:19:20;;;;;;;14.93;9.38;;;;;;;;;;5012958;28;20959;-52
2020/12/10 14:21:46;;;;;;;13.77;9.67;;;;;;;;;;5012800;28;20172;-52